Pagrindinis puslapis
METAR-TAF:

METAR-TAF

Oro uostai :

Dhahran, Saudo Arabija

platuma: 26-16N, ilguma: 050-09E, Aukštis: 26 m

Dabartinis oras

Ataskaita buvo paskelbta 33 minutes, ne 00:00 UTC
Vėjas 4 kt iš Vakarų/Šiaurės Vakarų
Temperatūra 25°C
Drėgmė 65%
Slėgis 1002 hPa
Matomumas 10 km arba daugiau
nėra debesų žemiau 1500 m ir nėra kamuolinių lietaus debesų

METAR: OEDR 240000Z 30004KT CAVOK 25/18 Q1002 NOSIG

Laikas: 03:33 (00:33 UTC)

Prognozė

Ataskaita buvo paskelbta 3 valandos ir 33 minutes, ne 21:00 UTC
Prognozė galioja nuo 24 metu 00 UTC su 25 metu 06 UTC
Vėjas 4 kt iš Vakarų/Šiaurės Vakarų
Matomumas 10 km arba daugiau
nėra debesų žemiau 1500 m ir nėra kamuolinių lietaus debesų
Tapsmas
nuo 24 metu 09 UTC su 24 metu 11 UTC
Vėjas 5 kt iš Šiaurės Rytų
Tapsmas
nuo 24 metu 22 UTC su 24 metu 24 UTC
Vėjas 3 kt nuo kintamojo kryptimis

TAF: OEDR 232100Z 2400/2506 30004KT CAVOK BECMG 2409/2411 05005KT BECMG 2422/2424 VRB03KT

Orai ataskaitas ir orų prognozės (METAR, TAF).

turimą stotys yra geltonos ir raudonos taškus žemėlapyje.

Perkelti pele per norėdami pamatyti stoties vardą.

Tada spustelėkite, norėdami matyti oro stebėjimo ir prognozės.

Norėdami pakeisti žemėlapį: spustelėkite ant žalios mygtukų su juodo kryžiaus žemyn,; žalią mygtuką su brūkšneliu, jei norite nutolinti; arba žalių rodyklių gretimoms žemėlapius.


METAR-TAF: